sensor_id;sensor_type;location;lat;lon;timestamp;temperature;humidity
3942;DHT22;1985;48.592;8.850;2023-02-01T00:00:22;3.20;99.90
3942;DHT22;1985;48.592;8.850;2023-02-01T00:02:47;3.20;99.90
3942;DHT22;1985;48.592;8.850;2023-02-01T00:05:13;3.30;99.90
3942;DHT22;1985;48.592;8.850;2023-02-01T00:07:39;3.30;99.90
3942;DHT22;1985;48.592;8.850;2023-02-01T00:10:05;3.30;99.90
3942;DHT22;1985;48.592;8.850;2023-02-01T00:12:32;3.10;99.90
3942;DHT22;1985;48.592;8.850;2023-02-01T00:14:57;3.00;99.90
3942;DHT22;1985;48.592;8.850;2023-02-01T00:17:23;3.00;99.90
3942;DHT22;1985;48.592;8.850;2023-02-01T00:19:49;3.00;99.90
3942;DHT22;1985;48.592;8.850;2023-02-01T00:22:15;3.00;99.90
3942;DHT22;1985;48.592;8.850;2023-02-01T00:24:41;2.90;99.90
3942;DHT22;1985;48.592;8.850;2023-02-01T00:27:06;2.90;99.90
3942;DHT22;1985;48.592;8.850;2023-02-01T00:29:32;2.90;99.90
3942;DHT22;1985;48.592;8.850;2023-02-01T00:31:58;2.90;99.90
3942;DHT22;1985;48.592;8.850;2023-02-01T00:34:24;2.80;99.90
3942;DHT22;1985;48.592;8.850;2023-02-01T00:36:49;2.90;99.90
3942;DHT22;1985;48.592;8.850;2023-02-01T00:39:16;3.00;99.90
3942;DHT22;1985;48.592;8.850;2023-02-01T00:41:42;3.10;99.90
3942;DHT22;1985;48.592;8.850;2023-02-01T00:44:08;3.10;99.90
3942;DHT22;1985;48.592;8.850;2023-02-01T00:46:34;3.00;99.90
3942;DHT22;1985;48.592;8.850;2023-02-01T00:48:59;3.10;99.90
3942;DHT22;1985;48.592;8.850;2023-02-01T00:51:26;3.00;99.90
3942;DHT22;1985;48.592;8.850;2023-02-01T00:53:53;3.00;99.90
3942;DHT22;1985;48.592;8.850;2023-02-01T00:56:19;3.10;99.90
3942;DHT22;1985;48.592;8.850;2023-02-01T00:58:45;3.10;99.90
3942;DHT22;1985;48.592;8.850;2023-02-01T01:03:42;3.10;99.90
3942;DHT22;1985;48.592;8.850;2023-02-01T01:06:14;3.00;99.90
3942;DHT22;1985;48.592;8.850;2023-02-01T01:08:40;3.10;99.90
3942;DHT22;1985;48.592;8.850;2023-02-01T01:11:08;3.10;99.90
3942;DHT22;1985;48.592;8.850;2023-02-01T01:13:34;3.10;99.90
3942;DHT22;1985;48.592;8.850;2023-02-01T01:16:01;3.20;99.90
3942;DHT22;1985;48.592;8.850;2023-02-01T01:18:28;3.20;99.90
3942;DHT22;1985;48.592;8.850;2023-02-01T01:20:54;3.20;99.90
3942;DHT22;1985;48.592;8.850;2023-02-01T01:23:20;3.30;99.90
3942;DHT22;1985;48.592;8.850;2023-02-01T01:25:46;3.30;99.90
3942;DHT22;1985;48.592;8.850;2023-02-01T01:28:11;3.20;99.90
3942;DHT22;1985;48.592;8.850;2023-02-01T01:30:37;3.10;99.90
3942;DHT22;1985;48.592;8.850;2023-02-01T01:33:03;3.10;99.90
3942;DHT22;1985;48.592;8.850;2023-02-01T01:35:30;3.00;99.90
3942;DHT22;1985;48.592;8.850;2023-02-01T01:37:56;2.90;99.90
3942;DHT22;1985;48.592;8.850;2023-02-01T01:40:22;2.80;99.90
3942;DHT22;1985;48.592;8.850;2023-02-01T01:42:47;2.90;99.90
3942;DHT22;1985;48.592;8.850;2023-02-01T01:47:52;3.00;99.90
3942;DHT22;1985;48.592;8.850;2023-02-01T01:50:23;3.00;99.90
3942;DHT22;1985;48.592;8.850;2023-02-01T01:52:51;3.10;99.90
3942;DHT22;1985;48.592;8.850;2023-02-01T01:55:22;3.10;99.90
3942;DHT22;1985;48.592;8.850;2023-02-01T01:57:57;3.20;99.90
3942;DHT22;1985;48.592;8.850;2023-02-01T02:00:24;3.20;99.90
3942;DHT22;1985;48.592;8.850;2023-02-01T02:02:57;3.30;99.90
3942;DHT22;1985;48.592;8.850;2023-02-01T02:05:23;3.20;99.90
3942;DHT22;1985;48.592;8.850;2023-02-01T02:07:51;3.30;99.90
3942;DHT22;1985;48.592;8.850;2023-02-01T02:10:18;3.30;99.90
3942;DHT22;1985;48.592;8.850;2023-02-01T02:12:46;3.30;99.90
3942;DHT22;1985;48.592;8.850;2023-02-01T02:15:14;3.30;99.90
3942;DHT22;1985;48.592;8.850;2023-02-01T02:18:09;3.20;99.90
3942;DHT22;1985;48.592;8.850;2023-02-01T02:21:09;3.20;99.90
3942;DHT22;1985;48.592;8.850;2023-02-01T02:35:10;3.40;99.90
3942;DHT22;1985;48.592;8.850;2023-02-01T02:37:46;3.40;99.90
3942;DHT22;1985;48.592;8.850;2023-02-01T02:40:18;3.40;99.90
3942;DHT22;1985;48.592;8.850;2023-02-01T02:52:02;3.20;99.90
3942;DHT22;1985;48.592;8.850;2023-02-01T02:54:52;3.20;99.90
3942;DHT22;1985;48.592;8.850;2023-02-01T02:57:27;3.20;99.90
3942;DHT22;1985;48.592;8.850;2023-02-01T03:00:18;3.20;99.90
3942;DHT22;1985;48.592;8.850;2023-02-01T03:03:04;3.10;99.90
3942;DHT22;1985;48.592;8.850;2023-02-01T03:05:49;3.20;99.90
3942;DHT22;1985;48.592;8.850;2023-02-01T03:08:25;3.10;99.90
3942;DHT22;1985;48.592;8.850;2023-02-01T03:11:01;3.10;99.90
3942;DHT22;1985;48.592;8.850;2023-02-01T03:19:25;3.10;99.90
3942;DHT22;1985;48.592;8.850;2023-02-01T03:22:02;3.10;99.90
3942;DHT22;1985;48.592;8.850;2023-02-01T03:24:34;3.20;99.90
3942;DHT22;1985;48.592;8.850;2023-02-01T03:27:32;3.10;99.90
3942;DHT22;1985;48.592;8.850;2023-02-01T03:32:38;3.20;99.90
3942;DHT22;1985;48.592;8.850;2023-02-01T03:40:48;3.20;99.90
3942;DHT22;1985;48.592;8.850;2023-02-01T03:43:18;3.20;99.90
3942;DHT22;1985;48.592;8.850;2023-02-01T03:45:48;3.10;99.90
3942;DHT22;1985;48.592;8.850;2023-02-01T03:48:16;3.10;99.90
3942;DHT22;1985;48.592;8.850;2023-02-01T03:50:49;3.10;99.90
3942;DHT22;1985;48.592;8.850;2023-02-01T03:53:20;3.10;99.90
3942;DHT22;1985;48.592;8.850;2023-02-01T03:55:48;3.20;99.90
3942;DHT22;1985;48.592;8.850;2023-02-01T03:58:23;3.10;99.90
3942;DHT22;1985;48.592;8.850;2023-02-01T04:00:57;3.20;99.90
3942;DHT22;1985;48.592;8.850;2023-02-01T04:03:24;3.20;99.90
3942;DHT22;1985;48.592;8.850;2023-02-01T04:05:51;3.30;99.90
3942;DHT22;1985;48.592;8.850;2023-02-01T04:08:19;3.40;99.90
3942;DHT22;1985;48.592;8.850;2023-02-01T04:10:44;3.40;99.90
3942;DHT22;1985;48.592;8.850;2023-02-01T04:13:12;3.50;99.90
3942;DHT22;1985;48.592;8.850;2023-02-01T04:15:38;3.60;99.90
3942;DHT22;1985;48.592;8.850;2023-02-01T04:18:04;3.60;99.90
3942;DHT22;1985;48.592;8.850;2023-02-01T04:20:30;3.50;99.90
3942;DHT22;1985;48.592;8.850;2023-02-01T04:22:56;3.50;99.90
3942;DHT22;1985;48.592;8.850;2023-02-01T04:25:22;3.50;99.90
3942;DHT22;1985;48.592;8.850;2023-02-01T04:27:47;3.60;99.90
3942;DHT22;1985;48.592;8.850;2023-02-01T04:30:13;3.60;99.90
3942;DHT22;1985;48.592;8.850;2023-02-01T04:32:39;3.60;99.90
3942;DHT22;1985;48.592;8.850;2023-02-01T04:35:06;3.60;99.90
3942;DHT22;1985;48.592;8.850;2023-02-01T04:37:33;3.70;99.90
3942;DHT22;1985;48.592;8.850;2023-02-01T04:39:58;3.70;99.90
3942;DHT22;1985;48.592;8.850;2023-02-01T04:42:24;3.80;99.90
3942;DHT22;1985;48.592;8.850;2023-02-01T04:44:50;3.80;99.90
3942;DHT22;1985;48.592;8.850;2023-02-01T04:47:16;3.80;99.90
3942;DHT22;1985;48.592;8.850;2023-02-01T04:49:41;3.80;99.90
3942;DHT22;1985;48.592;8.850;2023-02-01T04:52:07;3.80;99.90
3942;DHT22;1985;48.592;8.850;2023-02-01T04:54:33;3.70;99.90
3942;DHT22;1985;48.592;8.850;2023-02-01T04:56:59;3.70;99.90
3942;DHT22;1985;48.592;8.850;2023-02-01T04:59:27;3.60;99.90
3942;DHT22;1985;48.592;8.850;2023-02-01T05:01:54;3.70;99.90
3942;DHT22;1985;48.592;8.850;2023-02-01T05:04:19;3.70;99.90
3942;DHT22;1985;48.592;8.850;2023-02-01T05:06:45;3.70;99.90
3942;DHT22;1985;48.592;8.850;2023-02-01T05:09:11;3.60;99.90
3942;DHT22;1985;48.592;8.850;2023-02-01T05:11:37;3.60;99.90
3942;DHT22;1985;48.592;8.850;2023-02-01T05:14:21;3.60;99.90
3942;DHT22;1985;48.592;8.850;2023-02-01T05:16:46;3.50;99.90
3942;DHT22;1985;48.592;8.850;2023-02-01T05:19:12;3.50;99.90
3942;DHT22;1985;48.592;8.850;2023-02-01T05:21:37;3.50;99.90
3942;DHT22;1985;48.592;8.850;2023-02-01T05:24:03;3.40;99.90
3942;DHT22;1985;48.592;8.850;2023-02-01T05:26:36;3.40;99.90
3942;DHT22;1985;48.592;8.850;2023-02-01T05:29:04;3.40;99.90
3942;DHT22;1985;48.592;8.850;2023-02-01T05:31:29;3.50;99.90
3942;DHT22;1985;48.592;8.850;2023-02-01T05:33:55;3.50;99.90
3942;DHT22;1985;48.592;8.850;2023-02-01T05:36:21;3.50;99.90
3942;DHT22;1985;48.592;8.850;2023-02-01T05:38:47;3.60;99.90
3942;DHT22;1985;48.592;8.850;2023-02-01T05:41:12;3.60;99.90
3942;DHT22;1985;48.592;8.850;2023-02-01T05:43:38;3.70;99.90
3942;DHT22;1985;48.592;8.850;2023-02-01T05:46:03;3.80;99.90
3942;DHT22;1985;48.592;8.850;2023-02-01T05:48:29;3.70;99.90
3942;DHT22;1985;48.592;8.850;2023-02-01T05:50:55;3.60;99.90
3942;DHT22;1985;48.592;8.850;2023-02-01T05:53:21;3.60;99.90
3942;DHT22;1985;48.592;8.850;2023-02-01T05:55:47;3.50;99.90
3942;DHT22;1985;48.592;8.850;2023-02-01T05:58:12;3.50;99.90
3942;DHT22;1985;48.592;8.850;2023-02-01T06:00:39;3.50;99.90
3942;DHT22;1985;48.592;8.850;2023-02-01T06:03:04;3.50;99.90
3942;DHT22;1985;48.592;8.850;2023-02-01T06:05:30;3.40;99.90
3942;DHT22;1985;48.592;8.850;2023-02-01T06:07:56;3.50;99.90
3942;DHT22;1985;48.592;8.850;2023-02-01T06:10:22;3.50;99.90
3942;DHT22;1985;48.592;8.850;2023-02-01T06:12:48;3.50;99.90
3942;DHT22;1985;48.592;8.850;2023-02-01T06:15:14;3.50;99.90
3942;DHT22;1985;48.592;8.850;2023-02-01T06:17:41;3.60;99.90
3942;DHT22;1985;48.592;8.850;2023-02-01T06:20:09;3.60;99.90
3942;DHT22;1985;48.592;8.850;2023-02-01T06:22:34;3.60;99.90
3942;DHT22;1985;48.592;8.850;2023-02-01T06:25:02;3.50;99.90
3942;DHT22;1985;48.592;8.850;2023-02-01T06:27:27;3.40;99.90
3942;DHT22;1985;48.592;8.850;2023-02-01T06:29:53;3.40;99.90
3942;DHT22;1985;48.592;8.850;2023-02-01T06:32:20;3.50;99.90
3942;DHT22;1985;48.592;8.850;2023-02-01T06:34:46;3.50;99.90
3942;DHT22;1985;48.592;8.850;2023-02-01T06:37:11;3.50;99.90
3942;DHT22;1985;48.592;8.850;2023-02-01T06:39:37;3.50;99.90
3942;DHT22;1985;48.592;8.850;2023-02-01T06:42:03;3.60;99.90
3942;DHT22;1985;48.592;8.850;2023-02-01T06:44:29;3.60;99.90
3942;DHT22;1985;48.592;8.850;2023-02-01T06:46:55;3.60;99.90
3942;DHT22;1985;48.592;8.850;2023-02-01T06:49:21;3.60;99.90
3942;DHT22;1985;48.592;8.850;2023-02-01T06:51:47;3.60;99.90
3942;DHT22;1985;48.592;8.850;2023-02-01T06:54:13;3.60;99.90
3942;DHT22;1985;48.592;8.850;2023-02-01T06:56:39;3.50;99.90
3942;DHT22;1985;48.592;8.850;2023-02-01T06:59:08;3.60;99.90
3942;DHT22;1985;48.592;8.850;2023-02-01T07:01:34;3.50;99.90
3942;DHT22;1985;48.592;8.850;2023-02-01T07:04:00;3.60;99.90
3942;DHT22;1985;48.592;8.850;2023-02-01T07:06:25;3.50;99.90
3942;DHT22;1985;48.592;8.850;2023-02-01T07:08:51;3.60;99.90
3942;DHT22;1985;48.592;8.850;2023-02-01T07:11:18;3.50;99.90
3942;DHT22;1985;48.592;8.850;2023-02-01T07:13:44;3.60;99.90
3942;DHT22;1985;48.592;8.850;2023-02-01T07:16:15;3.60;99.90
3942;DHT22;1985;48.592;8.850;2023-02-01T07:18:42;3.70;99.90
3942;DHT22;1985;48.592;8.850;2023-02-01T07:21:08;3.70;99.90
3942;DHT22;1985;48.592;8.850;2023-02-01T07:23:34;3.70;99.90
3942;DHT22;1985;48.592;8.850;2023-02-01T07:26:02;3.70;99.90
3942;DHT22;1985;48.592;8.850;2023-02-01T07:28:30;3.80;99.90
3942;DHT22;1985;48.592;8.850;2023-02-01T07:31:02;3.90;99.90
3942;DHT22;1985;48.592;8.850;2023-02-01T07:33:28;3.90;99.90
3942;DHT22;1985;48.592;8.850;2023-02-01T07:35:53;3.90;99.90
3942;DHT22;1985;48.592;8.850;2023-02-01T07:38:19;3.80;99.90
3942;DHT22;1985;48.592;8.850;2023-02-01T07:40:47;3.70;99.90
3942;DHT22;1985;48.592;8.850;2023-02-01T07:43:13;3.80;99.90
3942;DHT22;1985;48.592;8.850;2023-02-01T07:45:38;3.80;99.90
3942;DHT22;1985;48.592;8.850;2023-02-01T07:48:04;3.80;99.90
3942;DHT22;1985;48.592;8.850;2023-02-01T07:50:30;3.80;99.90
3942;DHT22;1985;48.592;8.850;2023-02-01T07:52:59;3.90;99.90
3942;DHT22;1985;48.592;8.850;2023-02-01T07:55:25;4.00;99.90
3942;DHT22;1985;48.592;8.850;2023-02-01T07:57:51;4.00;99.90
3942;DHT22;1985;48.592;8.850;2023-02-01T08:00:18;4.00;99.90
3942;DHT22;1985;48.592;8.850;2023-02-01T08:03:04;4.10;99.90
3942;DHT22;1985;48.592;8.850;2023-02-01T08:05:29;4.20;99.90
3942;DHT22;1985;48.592;8.850;2023-02-01T08:07:55;4.30;99.90
3942;DHT22;1985;48.592;8.850;2023-02-01T08:10:21;4.40;99.90
3942;DHT22;1985;48.592;8.850;2023-02-01T08:12:46;4.40;99.90
3942;DHT22;1985;48.592;8.850;2023-02-01T08:15:17;4.50;99.90
3942;DHT22;1985;48.592;8.850;2023-02-01T08:17:50;4.60;99.90
3942;DHT22;1985;48.592;8.850;2023-02-01T08:20:17;4.70;99.90
3942;DHT22;1985;48.592;8.850;2023-02-01T08:22:43;4.70;99.90
3942;DHT22;1985;48.592;8.850;2023-02-01T08:25:09;4.80;99.90
3942;DHT22;1985;48.592;8.850;2023-02-01T08:27:36;4.80;99.90
3942;DHT22;1985;48.592;8.850;2023-02-01T08:30:05;4.70;99.90
3942;DHT22;1985;48.592;8.850;2023-02-01T08:32:33;4.70;99.90
3942;DHT22;1985;48.592;8.850;2023-02-01T08:34:59;4.70;99.90
3942;DHT22;1985;48.592;8.850;2023-02-01T08:37:24;4.70;99.90
3942;DHT22;1985;48.592;8.850;2023-02-01T08:39:50;4.80;99.90
3942;DHT22;1985;48.592;8.850;2023-02-01T08:42:16;4.90;99.90
3942;DHT22;1985;48.592;8.850;2023-02-01T08:45:01;5.00;99.90
3942;DHT22;1985;48.592;8.850;2023-02-01T08:47:27;5.00;99.90
3942;DHT22;1985;48.592;8.850;2023-02-01T08:49:53;5.00;99.90
3942;DHT22;1985;48.592;8.850;2023-02-01T08:52:19;5.00;99.90
3942;DHT22;1985;48.592;8.850;2023-02-01T08:54:45;5.00;99.90
3942;DHT22;1985;48.592;8.850;2023-02-01T08:57:10;5.00;99.90
3942;DHT22;1985;48.592;8.850;2023-02-01T08:59:36;4.90;99.90
3942;DHT22;1985;48.592;8.850;2023-02-01T09:02:02;4.90;99.90
3942;DHT22;1985;48.592;8.850;2023-02-01T09:04:27;4.90;99.90
3942;DHT22;1985;48.592;8.850;2023-02-01T09:06:53;4.70;99.90
3942;DHT22;1985;48.592;8.850;2023-02-01T09:09:24;4.70;99.90
3942;DHT22;1985;48.592;8.850;2023-02-01T09:11:49;4.70;99.90
3942;DHT22;1985;48.592;8.850;2023-02-01T09:14:18;4.80;99.90
3942;DHT22;1985;48.592;8.850;2023-02-01T09:16:44;4.80;99.90
3942;DHT22;1985;48.592;8.850;2023-02-01T09:19:09;4.80;99.90
3942;DHT22;1985;48.592;8.850;2023-02-01T09:21:35;4.90;99.90
3942;DHT22;1985;48.592;8.850;2023-02-01T09:24:01;4.80;99.90
3942;DHT22;1985;48.592;8.850;2023-02-01T09:26:27;5.00;99.90
3942;DHT22;1985;48.592;8.850;2023-02-01T09:28:52;5.00;99.90
3942;DHT22;1985;48.592;8.850;2023-02-01T09:31:21;4.90;99.90
3942;DHT22;1985;48.592;8.850;2023-02-01T09:33:47;5.00;99.90
3942;DHT22;1985;48.592;8.850;2023-02-01T09:36:12;5.00;99.90
3942;DHT22;1985;48.592;8.850;2023-02-01T09:38:38;5.00;99.90
3942;DHT22;1985;48.592;8.850;2023-02-01T09:41:54;5.10;99.90
3942;DHT22;1985;48.592;8.850;2023-02-01T09:44:02;5.00;99.90
3942;DHT22;1985;48.592;8.850;2023-02-01T09:46:32;5.00;99.90
3942;DHT22;1985;48.592;8.850;2023-02-01T09:49:01;5.20;99.90
3942;DHT22;1985;48.592;8.850;2023-02-01T09:51:43;5.20;99.90
3942;DHT22;1985;48.592;8.850;2023-02-01T09:54:29;5.30;99.90
3942;DHT22;1985;48.592;8.850;2023-02-01T09:57:07;5.30;99.90
3942;DHT22;1985;48.592;8.850;2023-02-01T10:00:19;5.20;99.90
3942;DHT22;1985;48.592;8.850;2023-02-01T10:02:43;5.30;99.90
3942;DHT22;1985;48.592;8.850;2023-02-01T10:05:14;5.30;99.90
3942;DHT22;1985;48.592;8.850;2023-02-01T10:25:56;5.90;99.90
3942;DHT22;1985;48.592;8.850;2023-02-01T10:28:25;5.80;99.90
3942;DHT22;1985;48.592;8.850;2023-02-01T10:30:54;6.10;99.90
3942;DHT22;1985;48.592;8.850;2023-02-01T10:33:37;6.10;99.90
3942;DHT22;1985;48.592;8.850;2023-02-01T10:36:29;6.10;99.90
3942;DHT22;1985;48.592;8.850;2023-02-01T10:39:00;6.10;99.90
3942;DHT22;1985;48.592;8.850;2023-02-01T10:41:35;5.90;99.90
3942;DHT22;1985;48.592;8.850;2023-02-01T10:44:06;5.60;99.90
3942;DHT22;1985;48.592;8.850;2023-02-01T10:46:33;5.60;99.90
3942;DHT22;1985;48.592;8.850;2023-02-01T10:49:03;5.60;99.90
3942;DHT22;1985;48.592;8.850;2023-02-01T10:54:12;5.70;99.90
3942;DHT22;1985;48.592;8.850;2023-02-01T10:56:39;5.80;99.90
3942;DHT22;1985;48.592;8.850;2023-02-01T10:59:11;5.80;99.90
3942;DHT22;1985;48.592;8.850;2023-02-01T11:01:41;5.70;99.90
3942;DHT22;1985;48.592;8.850;2023-02-01T11:04:14;5.80;99.90
3942;DHT22;1985;48.592;8.850;2023-02-01T11:06:43;5.70;99.90
3942;DHT22;1985;48.592;8.850;2023-02-01T11:11:59;5.90;99.90
3942;DHT22;1985;48.592;8.850;2023-02-01T11:19:18;5.70;99.90
3942;DHT22;1985;48.592;8.850;2023-02-01T11:21:55;5.60;99.90
3942;DHT22;1985;48.592;8.850;2023-02-01T11:24:34;5.60;99.90
3942;DHT22;1985;48.592;8.850;2023-02-01T11:27:03;5.40;99.90
3942;DHT22;1985;48.592;8.850;2023-02-01T11:29:36;5.50;99.90
3942;DHT22;1985;48.592;8.850;2023-02-01T11:32:03;5.60;99.90
3942;DHT22;1985;48.592;8.850;2023-02-01T11:37:34;5.70;99.90
3942;DHT22;1985;48.592;8.850;2023-02-01T11:40:09;5.70;99.90
3942;DHT22;1985;48.592;8.850;2023-02-01T11:42:59;5.80;99.90
3942;DHT22;1985;48.592;8.850;2023-02-01T11:45:30;5.80;99.90
3942;DHT22;1985;48.592;8.850;2023-02-01T11:47:57;5.70;99.90
3942;DHT22;1985;48.592;8.850;2023-02-01T11:51:18;5.90;99.90
3942;DHT22;1985;48.592;8.850;2023-02-01T11:57:50;5.80;99.90
3942;DHT22;1985;48.592;8.850;2023-02-01T11:59:56;6.00;99.90
3942;DHT22;1985;48.592;8.850;2023-02-01T12:06:07;5.60;99.90
3942;DHT22;1985;48.592;8.850;2023-02-01T12:28:02;5.40;99.90
3942;DHT22;1985;48.592;8.850;2023-02-01T12:33:12;5.30;99.90
3942;DHT22;1985;48.592;8.850;2023-02-01T12:52:40;5.40;99.90
3942;DHT22;1985;48.592;8.850;2023-02-01T12:58:09;5.30;99.90
3942;DHT22;1985;48.592;8.850;2023-02-01T13:00:59;5.30;99.90
3942;DHT22;1985;48.592;8.850;2023-02-01T13:03:32;5.20;99.90
3942;DHT22;1985;48.592;8.850;2023-02-01T13:06:41;5.10;99.90
3942;DHT22;1985;48.592;8.850;2023-02-01T13:11:57;5.10;99.90
3942;DHT22;1985;48.592;8.850;2023-02-01T13:14:37;5.20;99.90
3942;DHT22;1985;48.592;8.850;2023-02-01T13:17:15;5.20;99.90
3942;DHT22;1985;48.592;8.850;2023-02-01T13:19:52;5.20;99.90
3942;DHT22;1985;48.592;8.850;2023-02-01T13:25:11;5.20;99.90
3942;DHT22;1985;48.592;8.850;2023-02-01T13:27:38;5.30;99.90
3942;DHT22;1985;48.592;8.850;2023-02-01T13:35:47;5.00;99.90
3942;DHT22;1985;48.592;8.850;2023-02-01T13:43:58;5.50;99.90
3942;DHT22;1985;48.592;8.850;2023-02-01T13:46:24;5.60;99.90
3942;DHT22;1985;48.592;8.850;2023-02-01T13:48:59;5.40;99.90
3942;DHT22;1985;48.592;8.850;2023-02-01T13:51:43;5.30;99.90
3942;DHT22;1985;48.592;8.850;2023-02-01T13:54:33;5.10;99.90
3942;DHT22;1985;48.592;8.850;2023-02-01T13:57:02;5.20;99.90
3942;DHT22;1985;48.592;8.850;2023-02-01T14:08:39;5.20;99.90
3942;DHT22;1985;48.592;8.850;2023-02-01T14:11:05;5.20;99.90
3942;DHT22;1985;48.592;8.850;2023-02-01T14:13:38;5.20;99.90
3942;DHT22;1985;48.592;8.850;2023-02-01T14:23:40;5.70;99.90
3942;DHT22;1985;48.592;8.850;2023-02-01T14:26:09;5.60;99.90
3942;DHT22;1985;48.592;8.850;2023-02-01T14:28:40;5.70;99.90
3942;DHT22;1985;48.592;8.850;2023-02-01T14:34:03;5.70;99.90
3942;DHT22;1985;48.592;8.850;2023-02-01T14:36:56;5.70;99.90
3942;DHT22;1985;48.592;8.850;2023-02-01T14:39:30;5.70;99.90
3942;DHT22;1985;48.592;8.850;2023-02-01T14:42:00;5.50;99.90
3942;DHT22;1985;48.592;8.850;2023-02-01T14:44:30;5.50;99.90
3942;DHT22;1985;48.592;8.850;2023-02-01T14:49:47;5.40;99.90
3942;DHT22;1985;48.592;8.850;2023-02-01T14:52:18;5.40;99.90
3942;DHT22;1985;48.592;8.850;2023-02-01T14:54:54;5.40;99.90
3942;DHT22;1985;48.592;8.850;2023-02-01T14:57:24;5.30;99.90
3942;DHT22;1985;48.592;8.850;2023-02-01T15:00:00;5.40;99.90
3942;DHT22;1985;48.592;8.850;2023-02-01T15:02:31;5.30;99.90
3942;DHT22;1985;48.592;8.850;2023-02-01T15:05:00;5.20;99.90
3942;DHT22;1985;48.592;8.850;2023-02-01T15:07:26;5.30;99.90
3942;DHT22;1985;48.592;8.850;2023-02-01T15:09:54;5.20;99.90
3942;DHT22;1985;48.592;8.850;2023-02-01T15:12:28;5.20;99.90
3942;DHT22;1985;48.592;8.850;2023-02-01T15:17:56;5.30;99.90
3942;DHT22;1985;48.592;8.850;2023-02-01T15:20:24;5.30;99.90
3942;DHT22;1985;48.592;8.850;2023-02-01T15:22:56;5.20;99.90
3942;DHT22;1985;48.592;8.850;2023-02-01T15:25:32;5.20;99.90
3942;DHT22;1985;48.592;8.850;2023-02-01T15:27:58;5.40;99.90
3942;DHT22;1985;48.592;8.850;2023-02-01T15:30:30;5.40;99.90
3942;DHT22;1985;48.592;8.850;2023-02-01T15:36:10;5.30;99.90
3942;DHT22;1985;48.592;8.850;2023-02-01T15:38:45;5.40;99.90
3942;DHT22;1985;48.592;8.850;2023-02-01T15:41:28;5.40;99.90
3942;DHT22;1985;48.592;8.850;2023-02-01T15:46:35;5.30;99.90
3942;DHT22;1985;48.592;8.850;2023-02-01T15:49:02;5.30;99.90
3942;DHT22;1985;48.592;8.850;2023-02-01T15:51:30;5.30;99.90
3942;DHT22;1985;48.592;8.850;2023-02-01T15:54:04;5.40;99.90
3942;DHT22;1985;48.592;8.850;2023-02-01T15:56:37;5.40;99.90
3942;DHT22;1985;48.592;8.850;2023-02-01T15:59:06;5.40;99.90
3942;DHT22;1985;48.592;8.850;2023-02-01T16:01:38;5.30;99.90
3942;DHT22;1985;48.592;8.850;2023-02-01T16:04:22;5.20;99.90
3942;DHT22;1985;48.592;8.850;2023-02-01T16:06:57;5.10;99.90
3942;DHT22;1985;48.592;8.850;2023-02-01T16:09:40;5.10;99.90
3942;DHT22;1985;48.592;8.850;2023-02-01T16:15:07;4.90;99.90
3942;DHT22;1985;48.592;8.850;2023-02-01T16:17:33;4.90;99.90
3942;DHT22;1985;48.592;8.850;2023-02-01T16:19:58;4.90;99.90
3942;DHT22;1985;48.592;8.850;2023-02-01T16:22:24;4.80;99.90
3942;DHT22;1985;48.592;8.850;2023-02-01T16:24:50;4.80;99.90
3942;DHT22;1985;48.592;8.850;2023-02-01T16:27:16;4.90;99.90
3942;DHT22;1985;48.592;8.850;2023-02-01T16:29:41;4.70;99.90
3942;DHT22;1985;48.592;8.850;2023-02-01T16:32:18;4.70;99.90
3942;DHT22;1985;48.592;8.850;2023-02-01T16:34:45;4.70;99.90
3942;DHT22;1985;48.592;8.850;2023-02-01T16:37:20;4.60;99.90
3942;DHT22;1985;48.592;8.850;2023-02-01T16:39:46;4.60;99.90
3942;DHT22;1985;48.592;8.850;2023-02-01T16:42:13;4.60;99.90
3942;DHT22;1985;48.592;8.850;2023-02-01T16:44:39;4.50;99.90
3942;DHT22;1985;48.592;8.850;2023-02-01T16:47:31;4.50;99.90
3942;DHT22;1985;48.592;8.850;2023-02-01T16:49:57;4.50;99.90
3942;DHT22;1985;48.592;8.850;2023-02-01T16:52:24;4.50;99.90
3942;DHT22;1985;48.592;8.850;2023-02-01T16:54:50;4.40;99.90
3942;DHT22;1985;48.592;8.850;2023-02-01T16:57:18;4.50;99.90
3942;DHT22;1985;48.592;8.850;2023-02-01T16:59:44;4.40;99.90
3942;DHT22;1985;48.592;8.850;2023-02-01T17:02:18;4.40;99.90
3942;DHT22;1985;48.592;8.850;2023-02-01T17:04:45;4.40;99.90
3942;DHT22;1985;48.592;8.850;2023-02-01T17:07:18;4.40;99.90
3942;DHT22;1985;48.592;8.850;2023-02-01T17:09:45;4.50;99.90
3942;DHT22;1985;48.592;8.850;2023-02-01T17:12:27;4.50;99.90
3942;DHT22;1985;48.592;8.850;2023-02-01T17:14:53;4.50;99.90
3942;DHT22;1985;48.592;8.850;2023-02-01T17:17:20;4.50;99.90
3942;DHT22;1985;48.592;8.850;2023-02-01T17:19:48;4.50;99.90
3942;DHT22;1985;48.592;8.850;2023-02-01T17:22:18;4.60;99.90
3942;DHT22;1985;48.592;8.850;2023-02-01T17:24:44;4.60;99.90
3942;DHT22;1985;48.592;8.850;2023-02-01T17:27:10;4.60;99.90
3942;DHT22;1985;48.592;8.850;2023-02-01T17:29:36;4.70;99.90
3942;DHT22;1985;48.592;8.850;2023-02-01T17:32:02;4.70;99.90
3942;DHT22;1985;48.592;8.850;2023-02-01T17:34:28;4.70;99.90
3942;DHT22;1985;48.592;8.850;2023-02-01T17:36:53;4.60;99.90
3942;DHT22;1985;48.592;8.850;2023-02-01T17:39:19;4.70;99.90
3942;DHT22;1985;48.592;8.850;2023-02-01T17:42:04;4.70;99.90
3942;DHT22;1985;48.592;8.850;2023-02-01T17:44:30;4.60;99.90
3942;DHT22;1985;48.592;8.850;2023-02-01T17:46:59;4.70;99.90
3942;DHT22;1985;48.592;8.850;2023-02-01T17:49:26;4.70;99.90
3942;DHT22;1985;48.592;8.850;2023-02-01T17:51:53;4.60;99.90
3942;DHT22;1985;48.592;8.850;2023-02-01T17:54:19;4.70;99.90
3942;DHT22;1985;48.592;8.850;2023-02-01T17:56:45;4.70;99.90
3942;DHT22;1985;48.592;8.850;2023-02-01T17:59:13;4.70;99.90
3942;DHT22;1985;48.592;8.850;2023-02-01T18:01:40;4.70;99.90
3942;DHT22;1985;48.592;8.850;2023-02-01T18:04:10;4.70;99.90
3942;DHT22;1985;48.592;8.850;2023-02-01T18:06:36;4.70;99.90
3942;DHT22;1985;48.592;8.850;2023-02-01T18:09:02;4.70;99.90
3942;DHT22;1985;48.592;8.850;2023-02-01T18:11:27;4.70;99.90
3942;DHT22;1985;48.592;8.850;2023-02-01T18:13:57;4.80;99.90
3942;DHT22;1985;48.592;8.850;2023-02-01T18:16:24;4.70;99.90
3942;DHT22;1985;48.592;8.850;2023-02-01T18:18:50;4.70;99.90
3942;DHT22;1985;48.592;8.850;2023-02-01T18:21:17;4.70;99.90
3942;DHT22;1985;48.592;8.850;2023-02-01T18:23:43;4.70;99.90
3942;DHT22;1985;48.592;8.850;2023-02-01T18:26:15;4.80;99.90
3942;DHT22;1985;48.592;8.850;2023-02-01T18:28:41;4.80;99.90
3942;DHT22;1985;48.592;8.850;2023-02-01T18:31:21;4.80;99.90
3942;DHT22;1985;48.592;8.850;2023-02-01T18:33:48;4.80;99.90
3942;DHT22;1985;48.592;8.850;2023-02-01T18:36:14;4.90;99.90
3942;DHT22;1985;48.592;8.850;2023-02-01T18:38:40;4.90;99.90
3942;DHT22;1985;48.592;8.850;2023-02-01T18:41:11;4.80;99.90
3942;DHT22;1985;48.592;8.850;2023-02-01T18:43:38;4.80;99.90
3942;DHT22;1985;48.592;8.850;2023-02-01T18:46:04;4.70;99.90
3942;DHT22;1985;48.592;8.850;2023-02-01T18:48:29;4.70;99.90
3942;DHT22;1985;48.592;8.850;2023-02-01T18:50:55;4.70;99.90
3942;DHT22;1985;48.592;8.850;2023-02-01T18:53:22;4.70;99.90
3942;DHT22;1985;48.592;8.850;2023-02-01T18:55:52;4.80;99.90
3942;DHT22;1985;48.592;8.850;2023-02-01T18:58:18;4.80;99.90
3942;DHT22;1985;48.592;8.850;2023-02-01T19:00:45;4.70;99.90
3942;DHT22;1985;48.592;8.850;2023-02-01T19:03:12;4.70;99.90
3942;DHT22;1985;48.592;8.850;2023-02-01T19:05:37;4.70;99.90
3942;DHT22;1985;48.592;8.850;2023-02-01T19:08:03;4.80;99.90
3942;DHT22;1985;48.592;8.850;2023-02-01T19:10:29;4.80;99.90
3942;DHT22;1985;48.592;8.850;2023-02-01T19:12:55;4.90;99.90
3942;DHT22;1985;48.592;8.850;2023-02-01T19:15:22;4.80;99.90
3942;DHT22;1985;48.592;8.850;2023-02-01T19:17:49;4.80;99.90
3942;DHT22;1985;48.592;8.850;2023-02-01T19:20:18;4.80;99.90
3942;DHT22;1985;48.592;8.850;2023-02-01T19:22:44;4.80;99.90